sensor_id;sensor_type;location;lat;lon;timestamp;pressure;altitude;pressure_sealevel;temperature;humidity
60228;BME280;46091;46.512;6.626;2023-04-07T08:04:35;96852.84;;;10.29;59.27
60228;BME280;46091;46.512;6.626;2023-04-07T08:06:38;96847.19;;;10.60;58.83
60228;BME280;46091;46.512;6.626;2023-04-07T08:08:42;96857.16;;;10.86;58.66
60228;BME280;46091;46.512;6.626;2023-04-07T08:10:45;96848.13;;;11.08;58.33
60228;BME280;46091;46.512;6.626;2023-04-07T08:12:48;96846.41;;;11.29;58.29
60228;BME280;46091;46.512;6.626;2023-04-07T08:14:51;96856.69;;;11.45;57.94
60228;BME280;46091;46.512;6.626;2023-04-07T08:16:54;96857.31;;;11.54;57.67
60228;BME280;46091;46.512;6.626;2023-04-07T08:18:57;96856.94;;;11.63;57.96
60228;BME280;46091;46.512;6.626;2023-04-07T08:21:02;96859.03;;;11.75;57.68
60228;BME280;46091;46.512;6.626;2023-04-07T08:23:06;96866.84;;;11.83;57.58
60228;BME280;46091;46.512;6.626;2023-04-07T08:25:08;96859.31;;;11.86;57.43
60228;BME280;46091;46.512;6.626;2023-04-07T08:27:12;96866.25;;;11.94;57.32
60228;BME280;46091;46.512;6.626;2023-04-07T08:29:15;96858.94;;;12.03;57.02
60228;BME280;46091;46.512;6.626;2023-04-07T08:31:18;96865.06;;;12.03;57.04
60228;BME280;46091;46.512;6.626;2023-04-07T08:33:21;96865.06;;;12.03;57.13
60228;BME280;46091;46.512;6.626;2023-04-07T08:35:26;96870.97;;;12.05;57.16
60228;BME280;46091;46.512;6.626;2023-04-07T08:37:35;96871.19;;;12.10;57.12
60228;BME280;46091;46.512;6.626;2023-04-07T08:39:38;96869.78;;;12.14;56.82
60228;BME280;46091;46.512;6.626;2023-04-07T08:41:43;96869.56;;;12.16;56.99
60228;BME280;46091;46.512;6.626;2023-04-07T08:43:47;96878.34;;;12.16;56.74
60228;BME280;46091;46.512;6.626;2023-04-07T08:45:53;96884.66;;;12.15;56.99
60228;BME280;46091;46.512;6.626;2023-04-07T08:48:03;96891.59;;;12.16;56.95
60228;BME280;46091;46.512;6.626;2023-04-07T08:50:10;96891.19;;;12.19;56.54
60228;BME280;46091;46.512;6.626;2023-04-07T08:52:13;96887.09;;;12.17;56.28
60228;BME280;46091;46.512;6.626;2023-04-07T08:54:19;96890.97;;;12.14;56.78
60228;BME280;46091;46.512;6.626;2023-04-07T08:56:23;96900.56;;;12.15;56.84
60228;BME280;46091;46.512;6.626;2023-04-07T08:58:27;96897.50;;;12.12;56.50
60228;BME280;46091;46.512;6.626;2023-04-07T09:00:30;96895.47;;;12.14;56.67
60228;BME280;46091;46.512;6.626;2023-04-07T09:02:34;96894.84;;;12.18;56.71
60228;BME280;46091;46.512;6.626;2023-04-07T09:04:37;96897.09;;;12.21;56.67
60228;BME280;46091;46.512;6.626;2023-04-07T09:06:40;96896.88;;;12.23;56.41
60228;BME280;46091;46.512;6.626;2023-04-07T09:08:43;96901.00;;;12.26;56.41
60228;BME280;46091;46.512;6.626;2023-04-07T09:10:47;96891.63;;;12.30;56.45
60228;BME280;46091;46.512;6.626;2023-04-07T09:12:50;96894.06;;;12.31;56.28
60228;BME280;46091;46.512;6.626;2023-04-07T09:14:52;96895.69;;;12.32;56.21
60228;BME280;46091;46.512;6.626;2023-04-07T09:16:55;96889.56;;;12.32;56.26
60228;BME280;46091;46.512;6.626;2023-04-07T09:19:00;96891.19;;;12.33;56.19
60228;BME280;46091;46.512;6.626;2023-04-07T09:21:04;96897.16;;;12.35;56.16
60228;BME280;46091;46.512;6.626;2023-04-07T09:23:27;96901.81;;;12.33;56.26
60228;BME280;46091;46.512;6.626;2023-04-07T09:25:30;96903.84;;;12.31;55.99
60228;BME280;46091;46.512;6.626;2023-04-07T09:27:36;96900.19;;;12.32;55.78
60228;BME280;46091;46.512;6.626;2023-04-07T09:29:39;96905.88;;;12.29;56.03
60228;BME280;46091;46.512;6.626;2023-04-07T09:31:44;96913.03;;;12.28;56.31
60228;BME280;46091;46.512;6.626;2023-04-07T09:33:48;96913.44;;;12.25;56.18
60228;BME280;46091;46.512;6.626;2023-04-07T09:35:51;96908.72;;;12.20;55.84
60228;BME280;46091;46.512;6.626;2023-04-07T09:38:00;96910.97;;;12.17;55.97
60228;BME280;46091;46.512;6.626;2023-04-07T09:40:06;96915.25;;;12.18;56.05
60228;BME280;46091;46.512;6.626;2023-04-07T09:42:10;96915.66;;;12.21;55.89
60228;BME280;46091;46.512;6.626;2023-04-07T09:44:14;96920.13;;;12.21;55.88
60228;BME280;46091;46.512;6.626;2023-04-07T09:46:17;96918.50;;;12.20;55.82
60228;BME280;46091;46.512;6.626;2023-04-07T09:48:20;96917.69;;;12.19;55.86
60228;BME280;46091;46.512;6.626;2023-04-07T09:50:30;96922.81;;;12.28;56.17
60228;BME280;46091;46.512;6.626;2023-04-07T09:52:49;96921.19;;;12.33;56.02
60228;BME280;46091;46.512;6.626;2023-04-07T09:54:54;96922.63;;;12.36;55.86
60228;BME280;46091;46.512;6.626;2023-04-07T09:56:59;96920.59;;;12.38;55.78
60228;BME280;46091;46.512;6.626;2023-04-07T09:59:03;96920.78;;;12.43;55.75
60228;BME280;46091;46.512;6.626;2023-04-07T10:01:08;96918.78;;;12.51;55.63
60228;BME280;46091;46.512;6.626;2023-04-07T10:03:12;96907.56;;;12.49;55.57
60228;BME280;46091;46.512;6.626;2023-04-07T10:05:16;96907.75;;;12.48;55.40
60228;BME280;46091;46.512;6.626;2023-04-07T10:07:21;96913.69;;;12.50;55.49
60228;BME280;46091;46.512;6.626;2023-04-07T10:09:26;96906.75;;;12.49;55.43
60228;BME280;46091;46.512;6.626;2023-04-07T10:11:29;96907.53;;;12.43;55.82
60228;BME280;46091;46.512;6.626;2023-04-07T10:13:34;96907.16;;;12.46;55.75
60228;BME280;46091;46.512;6.626;2023-04-07T10:15:37;96907.56;;;12.49;55.56
60228;BME280;46091;46.512;6.626;2023-04-07T10:17:45;96910.41;;;12.48;55.57
60228;BME280;46091;46.512;6.626;2023-04-07T10:19:49;96907.94;;;12.40;55.56
60228;BME280;46091;46.512;6.626;2023-04-07T10:21:53;96912.41;;;12.33;55.48
60228;BME280;46091;46.512;6.626;2023-04-07T10:24:02;96912.22;;;12.28;55.63
60228;BME280;46091;46.512;6.626;2023-04-07T10:26:07;96914.03;;;12.27;55.99
60228;BME280;46091;46.512;6.626;2023-04-07T10:28:11;96916.91;;;12.32;55.66
60228;BME280;46091;46.512;6.626;2023-04-07T10:30:19;96916.31;;;12.37;55.90
60228;BME280;46091;46.512;6.626;2023-04-07T10:32:23;96907.94;;;12.40;55.45
60228;BME280;46091;46.512;6.626;2023-04-07T10:34:56;96905.69;;;12.43;55.26
60228;BME280;46091;46.512;6.626;2023-04-07T10:37:11;96905.09;;;12.41;55.69
60228;BME280;46091;46.512;6.626;2023-04-07T10:39:20;96903.88;;;12.44;55.47
60228;BME280;46091;46.512;6.626;2023-04-07T10:41:34;96901.84;;;12.46;55.45
60228;BME280;46091;46.512;6.626;2023-04-07T10:43:39;96901.03;;;12.52;55.13
60228;BME280;46091;46.512;6.626;2023-04-07T10:45:51;96897.34;;;12.53;55.19
60228;BME280;46091;46.512;6.626;2023-04-07T10:48:09;96894.28;;;12.43;55.36
60228;BME280;46091;46.512;6.626;2023-04-07T10:50:18;96892.66;;;12.42;55.38
60228;BME280;46091;46.512;6.626;2023-04-07T10:52:22;96894.28;;;12.43;55.64
60228;BME280;46091;46.512;6.626;2023-04-07T10:54:24;96901.44;;;12.49;55.27
60228;BME280;46091;46.512;6.626;2023-04-07T10:59:13;96895.72;;;12.65;54.96
60228;BME280;46091;46.512;6.626;2023-04-07T11:01:19;96895.31;;;12.68;55.07
60228;BME280;46091;46.512;6.626;2023-04-07T11:03:23;96889.22;;;12.74;55.09
60228;BME280;46091;46.512;6.626;2023-04-07T11:05:28;96892.91;;;12.80;54.82
60228;BME280;46091;46.512;6.626;2023-04-07T11:07:49;96894.94;;;12.91;55.15
60228;BME280;46091;46.512;6.626;2023-04-07T11:10:07;96895.13;;;13.03;54.94
60228;BME280;46091;46.512;6.626;2023-04-07T11:12:21;96891.03;;;13.07;54.56
60228;BME280;46091;46.512;6.626;2023-04-07T11:14:25;96891.25;;;13.05;54.66
60228;BME280;46091;46.512;6.626;2023-04-07T11:16:39;96897.38;;;13.06;54.67
60228;BME280;46091;46.512;6.626;2023-04-07T11:18:44;96902.66;;;13.06;54.57
60228;BME280;46091;46.512;6.626;2023-04-07T11:20:51;96896.34;;;13.07;54.48
60228;BME280;46091;46.512;6.626;2023-04-07T11:22:58;96892.88;;;13.06;54.81
60228;BME280;46091;46.512;6.626;2023-04-07T11:25:01;96894.50;;;13.01;54.65
60228;BME280;46091;46.512;6.626;2023-04-07T11:27:04;96885.94;;;12.99;54.79
60228;BME280;46091;46.512;6.626;2023-04-07T11:29:09;96896.34;;;13.00;55.00
60228;BME280;46091;46.512;6.626;2023-04-07T11:31:20;96898.19;;;13.06;54.93
60228;BME280;46091;46.512;6.626;2023-04-07T11:33:25;96892.44;;;13.09;54.92
60228;BME280;46091;46.512;6.626;2023-04-07T11:35:29;96897.53;;;13.11;54.95
60228;BME280;46091;46.512;6.626;2023-04-07T11:37:33;96887.53;;;13.13;54.73
60228;BME280;46091;46.512;6.626;2023-04-07T11:39:37;96884.69;;;13.15;54.68
60228;BME280;46091;46.512;6.626;2023-04-07T11:41:45;96885.09;;;13.18;54.89
60228;BME280;46091;46.512;6.626;2023-04-07T11:44:02;96885.31;;;13.17;54.56
60228;BME280;46091;46.512;6.626;2023-04-07T11:46:07;96883.03;;;13.13;54.68
60228;BME280;46091;46.512;6.626;2023-04-07T11:48:25;96889.59;;;13.11;54.81
60228;BME280;46091;46.512;6.626;2023-04-07T11:50:38;96889.59;;;13.11;54.59
60228;BME280;46091;46.512;6.626;2023-04-07T11:52:44;96887.94;;;13.10;54.65
60228;BME280;46091;46.512;6.626;2023-04-07T11:54:47;96887.13;;;13.09;54.86
60228;BME280;46091;46.512;6.626;2023-04-07T11:56:51;96878.78;;;13.06;54.58
60228;BME280;46091;46.512;6.626;2023-04-07T11:58:56;96886.94;;;12.98;54.66
60228;BME280;46091;46.512;6.626;2023-04-07T12:01:01;96891.03;;;12.94;54.62
60228;BME280;46091;46.512;6.626;2023-04-07T12:03:10;96886.56;;;12.94;54.70
60228;BME280;46091;46.512;6.626;2023-04-07T12:05:15;96883.69;;;12.96;54.67
60228;BME280;46091;46.512;6.626;2023-04-07T12:07:18;96884.28;;;12.98;54.48
60228;BME280;46091;46.512;6.626;2023-04-07T12:09:27;96885.94;;;12.99;54.34
60228;BME280;46091;46.512;6.626;2023-04-07T12:11:31;96885.31;;;12.97;54.32
60228;BME280;46091;46.512;6.626;2023-04-07T12:13:34;96874.72;;;12.97;54.50
60228;BME280;46091;46.512;6.626;2023-04-07T12:15:40;96878.56;;;13.01;54.81
60228;BME280;46091;46.512;6.626;2023-04-07T12:17:46;96874.72;;;13.03;54.38
60228;BME280;46091;46.512;6.626;2023-04-07T12:19:50;96878.78;;;13.06;54.23
60228;BME280;46091;46.512;6.626;2023-04-07T12:21:53;96880.41;;;13.07;54.61
60228;BME280;46091;46.512;6.626;2023-04-07T12:23:56;96871.25;;;13.03;54.32
60228;BME280;46091;46.512;6.626;2023-04-07T12:26:00;96875.72;;;12.96;54.63
60228;BME280;46091;46.512;6.626;2023-04-07T12:28:03;96876.97;;;12.87;54.78
60228;BME280;46091;46.512;6.626;2023-04-07T12:30:07;96874.13;;;12.81;54.83
60228;BME280;46091;46.512;6.626;2023-04-07T12:32:10;96867.19;;;12.80;54.83
60228;BME280;46091;46.512;6.626;2023-04-07T12:34:13;96871.03;;;12.78;54.72
60228;BME280;46091;46.512;6.626;2023-04-07T12:36:16;96876.13;;;12.79;54.82
60228;BME280;46091;46.512;6.626;2023-04-07T12:38:19;96871.84;;;12.78;54.47
60228;BME280;46091;46.512;6.626;2023-04-07T12:40:22;96871.47;;;12.81;54.66
60228;BME280;46091;46.512;6.626;2023-04-07T12:42:26;96872.88;;;12.84;54.74
60228;BME280;46091;46.512;6.626;2023-04-07T12:44:32;96874.09;;;12.88;54.45
60228;BME280;46091;46.512;6.626;2023-04-07T12:46:35;96873.72;;;12.91;54.54
60228;BME280;46091;46.512;6.626;2023-04-07T12:48:39;96869.81;;;12.94;54.68
60228;BME280;46091;46.512;6.626;2023-04-07T12:50:47;96858.59;;;12.92;54.45
60228;BME280;46091;46.512;6.626;2023-04-07T12:52:50;96873.88;;;12.90;54.34
60228;BME280;46091;46.512;6.626;2023-04-07T12:54:54;96866.94;;;12.89;54.29
60228;BME280;46091;46.512;6.626;2023-04-07T12:56:58;96864.91;;;12.91;54.19
60228;BME280;46091;46.512;6.626;2023-04-07T12:59:02;96861.44;;;12.97;54.47
60228;BME280;46091;46.512;6.626;2023-04-07T13:01:06;96865.50;;;12.99;54.21
60228;BME280;46091;46.512;6.626;2023-04-07T13:03:09;96855.31;;;12.96;54.19
60228;BME280;46091;46.512;6.626;2023-04-07T13:05:12;96861.00;;;13.00;54.43
60228;BME280;46091;46.512;6.626;2023-04-07T13:07:16;96856.72;;;12.99;54.08
60228;BME280;46091;46.512;6.626;2023-04-07T13:09:19;96860.63;;;12.96;54.23
60228;BME280;46091;46.512;6.626;2023-04-07T13:11:22;96861.66;;;12.95;54.25
60228;BME280;46091;46.512;6.626;2023-04-07T13:13:29;96857.75;;;12.98;54.28
60228;BME280;46091;46.512;6.626;2023-04-07T13:15:37;96851.00;;;13.02;54.30
60228;BME280;46091;46.512;6.626;2023-04-07T13:17:41;96851.84;;;13.02;54.17
60228;BME280;46091;46.512;6.626;2023-04-07T13:19:44;96843.88;;;13.02;54.32
60228;BME280;46091;46.512;6.626;2023-04-07T13:21:48;96833.66;;;13.06;54.04
60228;BME280;46091;46.512;6.626;2023-04-07T13:23:52;96839.38;;;13.09;54.26
60228;BME280;46091;46.512;6.626;2023-04-07T13:25:55;96837.91;;;13.13;54.22
60228;BME280;46091;46.512;6.626;2023-04-07T13:28:00;96839.75;;;13.13;54.04
60228;BME280;46091;46.512;6.626;2023-04-07T13:30:03;96823.47;;;13.03;54.03
60228;BME280;46091;46.512;6.626;2023-04-07T13:32:08;96833.03;;;13.10;54.14
60228;BME280;46091;46.512;6.626;2023-04-07T13:34:14;96823.44;;;13.16;54.15
60228;BME280;46091;46.512;6.626;2023-04-07T13:36:18;96828.94;;;13.21;53.90
60228;BME280;46091;46.512;6.626;2023-04-07T13:38:24;96829.75;;;13.28;53.89
60228;BME280;46091;46.512;6.626;2023-04-07T13:40:27;96836.47;;;13.31;53.65
60228;BME280;46091;46.512;6.626;2023-04-07T13:42:30;96834.47;;;13.26;53.58
60228;BME280;46091;46.512;6.626;2023-04-07T13:44:33;96833.66;;;13.19;53.72
60228;BME280;46091;46.512;6.626;2023-04-07T13:46:37;96834.66;;;13.18;53.55
60228;BME280;46091;46.512;6.626;2023-04-07T13:48:41;96837.31;;;13.31;53.71
60228;BME280;46091;46.512;6.626;2023-04-07T13:50:44;96834.59;;;13.45;53.67
60228;BME280;46091;46.512;6.626;2023-04-07T13:52:47;96839.69;;;13.53;53.01
60228;BME280;46091;46.512;6.626;2023-04-07T13:54:50;96836.38;;;13.57;53.11
60228;BME280;46091;46.512;6.626;2023-04-07T13:56:53;96836.78;;;13.61;53.19
60228;BME280;46091;46.512;6.626;2023-04-07T13:58:56;96837.00;;;13.59;53.16
60228;BME280;46091;46.512;6.626;2023-04-07T14:01:01;96839.63;;;13.66;53.10
60228;BME280;46091;46.512;6.626;2023-04-07T14:03:04;96835.31;;;13.72;52.85
60228;BME280;46091;46.512;6.626;2023-04-07T14:05:09;96830.56;;;13.80;53.08
60228;BME280;46091;46.512;6.626;2023-04-07T14:07:11;96835.63;;;13.88;52.97
60228;BME280;46091;46.512;6.626;2023-04-07T14:09:15;96828.44;;;13.95;52.72
60228;BME280;46091;46.512;6.626;2023-04-07T14:11:18;96829.03;;;13.97;52.76
60228;BME280;46091;46.512;6.626;2023-04-07T14:13:22;96825.94;;;14.01;52.40
60228;BME280;46091;46.512;6.626;2023-04-07T14:15:25;96830.81;;;14.10;52.46
60228;BME280;46091;46.512;6.626;2023-04-07T14:17:29;96825.00;;;14.20;52.21
60228;BME280;46091;46.512;6.626;2023-04-07T14:19:32;96824.13;;;14.26;52.08
60228;BME280;46091;46.512;6.626;2023-04-07T14:21:37;96815.75;;;14.29;52.33
60228;BME280;46091;46.512;6.626;2023-04-07T14:23:40;96817.94;;;14.39;52.08
60228;BME280;46091;46.512;6.626;2023-04-07T14:25:43;96818.94;;;14.44;52.16
60228;BME280;46091;46.512;6.626;2023-04-07T14:27:46;96824.41;;;14.49;51.82
60228;BME280;46091;46.512;6.626;2023-04-07T14:29:49;96812.91;;;14.55;51.85
60228;BME280;46091;46.512;6.626;2023-04-07T14:31:52;96809.97;;;14.64;51.44
60228;BME280;46091;46.512;6.626;2023-04-07T14:33:55;96807.03;;;14.72;51.49
60228;BME280;46091;46.512;6.626;2023-04-07T14:35:58;96812.53;;;14.77;51.43
60228;BME280;46091;46.512;6.626;2023-04-07T14:38:02;96818.59;;;14.84;51.11
60228;BME280;46091;46.512;6.626;2023-04-07T14:40:06;96819.19;;;14.86;50.91
60228;BME280;46091;46.512;6.626;2023-04-07T14:42:09;96814.47;;;14.88;50.63
60228;BME280;46091;46.512;6.626;2023-04-07T14:44:12;96810.75;;;14.89;50.75
60228;BME280;46091;46.512;6.626;2023-04-07T14:46:15;96809.94;;;14.89;50.86
60228;BME280;46091;46.512;6.626;2023-04-07T14:48:17;96811.34;;;14.91;50.57
60228;BME280;46091;46.512;6.626;2023-04-07T14:50:20;96808.69;;;14.91;50.60
60228;BME280;46091;46.512;6.626;2023-04-07T14:52:24;96812.16;;;14.92;50.50
60228;BME280;46091;46.512;6.626;2023-04-07T14:54:29;96808.69;;;14.91;50.38
60228;BME280;46091;46.512;6.626;2023-04-07T14:56:32;96801.16;;;14.88;50.03
60228;BME280;46091;46.512;6.626;2023-04-07T14:58:35;96796.69;;;14.82;50.19
60228;BME280;46091;46.512;6.626;2023-04-07T15:00:45;96798.41;;;14.76;49.70
60228;BME280;46091;46.512;6.626;2023-04-07T15:02:49;96803.56;;;14.71;49.84
60228;BME280;46091;46.512;6.626;2023-04-07T15:04:55;96796.50;;;14.59;49.79
60228;BME280;46091;46.512;6.626;2023-04-07T15:06:58;96800.19;;;14.57;49.93
60228;BME280;46091;46.512;6.626;2023-04-07T15:09:02;96801.44;;;14.55;49.41
60228;BME280;46091;46.512;6.626;2023-04-07T15:11:07;96806.41;;;14.51;49.48
60228;BME280;46091;46.512;6.626;2023-04-07T15:13:10;96801.75;;;14.40;48.93
60228;BME280;46091;46.512;6.626;2023-04-07T15:15:14;96807.94;;;14.34;49.16
60228;BME280;46091;46.512;6.626;2023-04-07T15:17:18;96814.28;;;14.33;49.22
60228;BME280;46091;46.512;6.626;2023-04-07T15:19:33;96813.25;;;14.34;48.71
60228;BME280;46091;46.512;6.626;2023-04-07T15:21:36;96810.81;;;14.33;48.66
60228;BME280;46091;46.512;6.626;2023-04-07T15:23:39;96824.09;;;14.33;48.66
60228;BME280;46091;46.512;6.626;2023-04-07T15:25:43;96817.16;;;14.32;48.80
60228;BME280;46091;46.512;6.626;2023-04-07T15:27:48;96822.69;;;14.30;48.24
60228;BME280;46091;46.512;6.626;2023-04-07T15:29:52;96821.28;;;14.27;48.18
60228;BME280;46091;46.512;6.626;2023-04-07T15:31:55;96821.28;;;14.27;47.87
60228;BME280;46091;46.512;6.626;2023-04-07T15:34:04;96817.63;;;14.22;47.97
60228;BME280;46091;46.512;6.626;2023-04-07T15:36:08;96822.16;;;14.15;48.10
60228;BME280;46091;46.512;6.626;2023-04-07T15:38:11;96817.66;;;14.15;47.81
60228;BME280;46091;46.512;6.626;2023-04-07T15:40:15;96815.22;;;14.14;47.59
60228;BME280;46091;46.512;6.626;2023-04-07T15:42:18;96819.56;;;14.08;47.83
60228;BME280;46091;46.512;6.626;2023-04-07T15:44:22;96821.22;;;14.03;47.72
60228;BME280;46091;46.512;6.626;2023-04-07T15:46:26;96821.00;;;14.04;48.09
60228;BME280;46091;46.512;6.626;2023-04-07T15:48:29;96821.06;;;13.97;47.79
60228;BME280;46091;46.512;6.626;2023-04-07T15:50:33;96821.50;;;13.94;47.82
60228;BME280;46091;46.512;6.626;2023-04-07T15:52:37;96827.22;;;13.91;47.72
60228;BME280;46091;46.512;6.626;2023-04-07T15:54:40;96826.25;;;13.86;48.08
60228;BME280;46091;46.512;6.626;2023-04-07T15:56:43;96828.09;;;13.85;47.98
60228;BME280;46091;46.512;6.626;2023-04-07T15:58:47;96831.56;;;13.86;47.78
60228;BME280;46091;46.512;6.626;2023-04-07T16:00:53;96841.53;;;13.90;47.56
60228;BME280;46091;46.512;6.626;2023-04-07T16:02:56;96839.91;;;13.89;47.90
60228;BME280;46091;46.512;6.626;2023-04-07T16:05:00;96845.59;;;13.93;47.91
60228;BME280;46091;46.512;6.626;2023-04-07T16:07:03;96839.69;;;13.97;47.32
60228;BME280;46091;46.512;6.626;2023-04-07T16:09:06;96849.66;;;14.02;47.56
60228;BME280;46091;46.512;6.626;2023-04-07T16:11:09;96848.00;;;14.08;47.06
60228;BME280;46091;46.512;6.626;2023-04-07T16:13:12;96845.50;;;14.13;46.92
60228;BME280;46091;46.512;6.626;2023-04-07T16:15:15;96854.69;;;14.17;47.08
60228;BME280;46091;46.512;6.626;2023-04-07T16:17:38;96858.97;;;14.18;47.06
60228;BME280;46091;46.512;6.626;2023-04-07T16:19:43;96868.81;;;14.17;47.14
60228;BME280;46091;46.512;6.626;2023-04-07T16:21:46;96874.75;;;14.13;47.09
60228;BME280;46091;46.512;6.626;2023-04-07T16:23:49;96873.56;;;14.09;46.97
60228;BME280;46091;46.512;6.626;2023-04-07T16:25:52;96876.66;;;14.06;47.14
60228;BME280;46091;46.512;6.626;2023-04-07T16:27:55;96874.00;;;13.99;47.03
60228;BME280;46091;46.512;6.626;2023-04-07T16:29:57;96881.59;;;13.95;46.81
60228;BME280;46091;46.512;6.626;2023-04-07T16:32:00;96879.16;;;13.94;46.81
60228;BME280;46091;46.512;6.626;2023-04-07T16:34:06;96874.25;;;13.91;47.01
60228;BME280;46091;46.512;6.626;2023-04-07T16:36:08;96878.75;;;13.90;46.96
60228;BME280;46091;46.512;6.626;2023-04-07T16:38:11;96877.13;;;13.89;46.83
60228;BME280;46091;46.512;6.626;2023-04-07T16:40:14;96883.47;;;13.88;46.46
60228;BME280;46091;46.512;6.626;2023-04-07T16:42:17;96877.53;;;13.86;46.77
60228;BME280;46091;46.512;6.626;2023-04-07T16:44:20;96881.22;;;13.85;46.79
60228;BME280;46091;46.512;6.626;2023-04-07T16:46:26;96888.59;;;13.83;46.64
60228;BME280;46091;46.512;6.626;2023-04-07T16:48:28;96891.47;;;13.82;46.55
60228;BME280;46091;46.512;6.626;2023-04-07T16:50:33;96889.00;;;13.80;46.83
60228;BME280;46091;46.512;6.626;2023-04-07T16:52:36;96888.41;;;13.78;46.54
60228;BME280;46091;46.512;6.626;2023-04-07T16:54:38;96890.69;;;13.75;46.76
60228;BME280;46091;46.512;6.626;2023-04-07T16:56:41;96885.59;;;13.73;46.63
60228;BME280;46091;46.512;6.626;2023-04-07T16:58:44;96886.59;;;13.72;46.75
60228;BME280;46091;46.512;6.626;2023-04-07T17:00:47;96893.13;;;13.69;46.51
60228;BME280;46091;46.512;6.626;2023-04-07T17:02:50;96894.38;;;13.67;46.46
60228;BME280;46091;46.512;6.626;2023-04-07T17:04:54;96893.78;;;13.65;46.84
60228;BME280;46091;46.512;6.626;2023-04-07T17:06:58;96899.72;;;13.60;46.69
60228;BME280;46091;46.512;6.626;2023-04-07T17:09:01;96905.03;;;13.60;46.79
60228;BME280;46091;46.512;6.626;2023-04-07T17:11:05;96907.28;;;13.57;46.66
60228;BME280;46091;46.512;6.626;2023-04-07T17:13:08;96904.41;;;13.58;46.85
60228;BME280;46091;46.512;6.626;2023-04-07T17:15:10;96912.00;;;13.55;46.85
60228;BME280;46091;46.512;6.626;2023-04-07T17:17:13;96910.97;;;13.56;46.65
60228;BME280;46091;46.512;6.626;2023-04-07T17:19:16;96909.34;;;13.55;46.45
60228;BME280;46091;46.512;6.626;2023-04-07T17:21:19;96917.31;;;13.55;46.81
60228;BME280;46091;46.512;6.626;2023-04-07T17:23:23;96933.66;;;13.52;46.85
60228;BME280;46091;46.512;6.626;2023-04-07T17:25:26;96932.25;;;13.49;46.54
60228;BME280;46091;46.512;6.626;2023-04-07T17:27:29;96931.63;;;13.47;46.57
60228;BME280;46091;46.512;6.626;2023-04-07T17:29:32;96931.00;;;13.45;46.71
60228;BME280;46091;46.512;6.626;2023-04-07T17:31:36;96933.06;;;13.43;46.86
60228;BME280;46091;46.512;6.626;2023-04-07T17:33:39;96934.91;;;13.43;46.80
60228;BME280;46091;46.512;6.626;2023-04-07T17:35:42;96938.59;;;13.42;46.50
60228;BME280;46091;46.512;6.626;2023-04-07T17:37:48;96941.66;;;13.38;47.10
60228;BME280;46091;46.512;6.626;2023-04-07T17:39:54;96935.75;;;13.36;46.76
60228;BME280;46091;46.512;6.626;2023-04-07T17:41:57;96934.31;;;13.34;46.88
60228;BME280;46091;46.512;6.626;2023-04-07T17:44:00;96941.66;;;13.32;46.99
60228;BME280;46091;46.512;6.626;2023-04-07T17:46:03;96945.72;;;13.34;46.88
60228;BME280;46091;46.512;6.626;2023-04-07T17:48:06;96948.81;;;13.31;46.80
60228;BME280;46091;46.512;6.626;2023-04-07T17:50:12;96947.78;;;13.32;47.09
60228;BME280;46091;46.512;6.626;2023-04-07T17:52:15;96945.13;;;13.32;46.73
60228;BME280;46091;46.512;6.626;2023-04-07T17:54:18;96952.50;;;13.30;46.90
60228;BME280;46091;46.512;6.626;2023-04-07T17:56:25;96944.34;;;13.25;46.84
60228;BME280;46091;46.512;6.626;2023-04-07T17:58:29;96948.00;;;13.24;46.96
60228;BME280;46091;46.512;6.626;2023-04-07T18:00:32;96946.34;;;13.17;46.72
60228;BME280;46091;46.512;6.626;2023-04-07T18:02:35;96954.91;;;13.12;46.87
60228;BME280;46091;46.512;6.626;2023-04-07T18:04:40;96953.69;;;13.08;46.66
60228;BME280;46091;46.512;6.626;2023-04-07T18:06:44;96962.28;;;13.03;46.82
60228;BME280;46091;46.512;6.626;2023-04-07T18:08:47;96953.69;;;13.01;46.80
60228;BME280;46091;46.512;6.626;2023-04-07T18:10:50;96967.16;;;13.00;46.68
60228;BME280;46091;46.512;6.626;2023-04-07T18:12:54;96969.22;;;12.98;47.08
60228;BME280;46091;46.512;6.626;2023-04-07T18:14:57;96965.94;;;12.96;47.20
60228;BME280;46091;46.512;6.626;2023-04-07T18:17:00;96971.25;;;12.96;46.96
60228;BME280;46091;46.512;6.626;2023-04-07T18:19:03;96967.59;;;12.97;47.00
60228;BME280;46091;46.512;6.626;2023-04-07T18:21:06;96972.88;;;12.97;46.91
60228;BME280;46091;46.512;6.626;2023-04-07T18:23:09;96968.81;;;12.94;46.85
60228;BME280;46091;46.512;6.626;2023-04-07T18:25:12;96974.50;;;12.85;47.08
60228;BME280;46091;46.512;6.626;2023-04-07T18:27:15;96974.50;;;12.85;47.07
60228;BME280;46091;46.512;6.626;2023-04-07T18:29:19;96974.28;;;12.79;47.18
60228;BME280;46091;46.512;6.626;2023-04-07T18:31:22;96974.09;;;12.74;47.30
60228;BME280;46091;46.512;6.626;2023-04-07T18:33:24;96979.81;;;12.71;47.26
60228;BME280;46091;46.512;6.626;2023-04-07T18:35:33;96978.38;;;12.69;46.94
60228;BME280;46091;46.512;6.626;2023-04-07T18:37:36;96979.38;;;12.68;47.10
60228;BME280;46091;46.512;6.626;2023-04-07T18:39:38;96985.94;;;12.72;47.26
60228;BME280;46091;46.512;6.626;2023-04-07T18:41:41;96983.28;;;12.72;47.13
60228;BME280;46091;46.512;6.626;2023-04-07T18:43:47;96984.09;;;12.72;47.23
60228;BME280;46091;46.512;6.626;2023-04-07T18:45:51;96977.78;;;12.73;47.30
60228;BME280;46091;46.512;6.626;2023-04-07T18:47:54;96989.19;;;12.74;46.89
60228;BME280;46091;46.512;6.626;2023-04-07T18:49:57;96988.78;;;12.70;47.21
60228;BME280;46091;46.512;6.626;2023-04-07T18:52:00;96990.81;;;12.68;47.02
60228;BME280;46091;46.512;6.626;2023-04-07T18:54:03;96993.28;;;12.70;46.86
60228;BME280;46091;46.512;6.626;2023-04-07T18:56:06;96986.13;;;12.70;47.10
60228;BME280;46091;46.512;6.626;2023-04-07T18:58:09;96996.53;;;12.72;46.89
60228;BME280;46091;46.512;6.626;2023-04-07T19:00:12;96990.19;;;12.66;46.78
60228;BME280;46091;46.512;6.626;2023-04-07T19:02:16;96994.88;;;12.64;47.06
60228;BME280;46091;46.512;6.626;2023-04-07T19:04:19;96992.84;;;12.66;46.93
60228;BME280;46091;46.512;6.626;2023-04-07T19:06:25;96997.78;;;12.69;47.21